Time;durP1;ratioP1;P1;durP2;ratioP2;P2;SDS_P1;SDS_P2;PMS_P1;PMS_P2;Temp;Humidity;BMP_temperature;BMP_pressure;BME280_temperature;BME280_humidity;BME280_pressure;Samples;Min_cycle;Max_cycle;Signal;HPM_P1;HPM_P2
2023/05/19 07:28:43;;;;;;;7.47;2.63;;;23.50;99.90;;;;;;4808411;23;20101;-79
2023/05/19 07:33:56;;;;;;;8.40;3.00;;;23.20;99.90;;;;;;4995367;23;20050;-69
2023/05/19 07:36:26;;;;;;;7.07;2.40;;;23.10;99.90;;;;;;5021724;23;20132;-78
2023/05/19 07:38:51;;;;;;;9.20;2.72;;;24.30;99.90;;;;;;5079161;23;20050;-82
2023/05/19 07:41:17;;;;;;;7.55;2.60;;;24.30;99.90;;;;;;5052629;23;20197;-65
2023/05/19 07:43:42;;;;;;;6.80;2.80;;;24.60;99.90;;;;;;5016983;23;20642;-82
2023/05/19 07:46:08;;;;;;;9.32;2.42;;;25.20;99.90;;;;;;5075402;23;20058;-74
2023/05/19 07:48:34;;;;;;;9.73;2.83;;;24.80;99.90;;;;;;4942401;23;20058;-77
2023/05/19 07:51:02;;;;;;;6.50;2.60;;;24.90;99.90;;;;;;5042877;23;20061;-86
2023/05/19 07:53:27;;;;;;;8.57;2.75;;;24.30;99.90;;;;;;4997965;28;20029;-85
2023/05/19 07:55:53;;;;;;;8.13;2.67;;;24.70;99.90;;;;;;4998035;28;20022;-85
2023/05/19 07:58:19;;;;;;;8.63;2.55;;;24.70;99.90;;;;;;4998076;28;20029;-85
2023/05/19 08:00:44;;;;;;;7.72;2.80;;;25.80;99.90;;;;;;4998229;28;20392;-85
2023/05/19 08:03:10;;;;;;;8.73;2.83;;;25.30;99.90;;;;;;4997751;28;20034;-85
2023/05/19 08:05:36;;;;;;;6.63;2.50;;;;;;;;;;4997882;28;20026;-86
2023/05/19 08:08:03;;;;;;;6.45;2.40;;;;;;;;;;4997569;28;20034;-86
2023/05/19 08:10:29;;;;;;;7.57;2.30;;;;;;;;;;4997740;28;20022;-86
2023/05/19 08:12:55;;;;;;;6.93;2.38;;;;;;;;;;4997875;28;20034;-86
2023/05/19 08:15:21;;;;;;;6.97;2.20;;;;;;;;;;4997705;28;20434;-85
2023/05/19 08:17:47;;;;;;;7.68;2.58;;;;;;;;;;4997682;28;20040;-85
2023/05/19 08:20:13;;;;;;;6.60;2.30;;;;;;;;;;4997314;28;20022;-85
2023/05/19 08:22:39;;;;;;;7.30;2.25;;;;;;;;;;4997212;28;20030;-86
2023/05/19 08:25:06;;;;;;;4.05;2.60;;;;;;;;;;4997112;28;20026;-84
2023/05/19 08:27:32;;;;;;;8.93;2.70;;;;;;;;;;4997076;28;20053;-86
2023/05/19 08:29:58;;;;;;;5.90;2.53;;;;;;;;;;4997107;28;20029;-86
2023/05/19 08:32:24;;;;;;;9.60;2.60;;;;;;;;;;4997622;28;20026;-85
2023/05/19 08:34:50;;;;;;;5.15;1.88;;;;;;;;;;4997486;28;20026;-86
2023/05/19 08:37:16;;;;;;;4.95;1.95;;;;;;;;;;4996961;28;20026;-86
2023/05/19 08:39:42;;;;;;;10.35;2.50;;;;;;;;;;4997251;28;20031;-86
2023/05/19 08:42:08;;;;;;;7.18;2.38;;;;;;;;;;4997155;28;20043;-85
2023/05/19 08:44:35;;;;;;;7.13;3.08;;;;;;;;;;4996501;28;20026;-85
2023/05/19 08:47:05;;;;;;;7.55;2.25;;;;;;;;;;4996713;28;20058;-85
2023/05/19 08:49:32;;;;;;;5.18;2.28;;;;;;;;;;4996795;28;20030;-85
2023/05/19 08:52:14;;;;;;;8.32;2.50;;;;;;;;;;4996037;28;20046;-85
2023/05/19 08:54:45;;;;;;;5.75;2.33;;;;;;;;;;4997557;28;20037;-85
2023/05/19 08:57:12;;;;;;;6.40;2.10;;;;;;;;;;4997234;28;20386;-85
2023/05/19 08:59:39;;;;;;;5.97;2.22;;;23.80;99.90;;;;;;4996880;28;20023;-85
2023/05/19 09:02:07;;;;;;;7.28;2.50;;;23.70;99.90;;;;;;4996614;28;20030;-85
2023/05/19 09:04:33;;;;;;;5.85;2.38;;;23.70;99.90;;;;;;4997386;28;20610;-84
2023/05/19 09:07:02;;;;;;;8.07;2.33;;;23.20;99.90;;;;;;4997107;28;20026;-86
2023/05/19 09:09:29;;;;;;;6.20;2.20;;;23.00;99.90;;;;;;4997067;28;20023;-84
2023/05/19 09:11:55;;;;;;;8.88;2.40;;;24.30;99.90;;;;;;4997284;28;20026;-84
2023/05/19 09:14:21;;;;;;;5.43;2.20;;;24.20;1.00;;;;;;4996744;28;20027;-85
2023/05/19 09:16:49;;;;;;;5.43;2.10;;;24.70;99.90;;;;;;4996503;28;20038;-84
2023/05/19 09:19:15;;;;;;;4.85;2.03;;;24.90;99.90;;;;;;4996064;28;20034;-84
2023/05/19 09:21:41;;;;;;;8.32;2.10;;;25.20;1.00;;;;;;4996718;28;20138;-85
2023/05/19 09:24:08;;;;;;;6.78;2.00;;;25.30;99.90;;;;;;4999446;28;20125;-86
2023/05/19 09:26:37;;;;;;;5.63;1.88;;;24.70;1.00;;;;;;4996933;28;20027;-85
2023/05/19 09:29:11;;;;;;;9.25;3.00;;;24.90;1.00;;;;;;4996835;28;20026;-83
2023/05/19 09:31:37;;;;;;;6.60;2.20;;;24.60;1.00;;;;;;4997060;28;20438;-84
2023/05/19 09:34:03;;;;;;;4.05;1.83;;;23.70;1.00;;;;;;4996657;28;20116;-85
2023/05/19 09:36:29;;;;;;;7.55;2.28;;;23.60;1.00;;;;;;4996950;28;20046;-85
2023/05/19 09:38:55;;;;;;;8.13;2.28;;;24.00;1.00;;;;;;4996597;28;20033;-84
2023/05/19 09:41:22;;;;;;;6.65;2.35;;;23.20;99.90;;;;;;4996211;28;20026;-85
2023/05/19 09:43:55;;;;;;;6.38;2.03;;;22.90;99.90;;;;;;4996320;28;20048;-85
2023/05/19 09:46:27;;;;;;;7.72;1.92;;;24.00;1.00;;;;;;4997031;28;20472;-85
2023/05/19 09:48:56;;;;;;;6.75;2.45;;;24.10;1.00;;;;;;4996695;28;20038;-84
2023/05/19 09:51:22;;;;;;;7.00;2.17;;;24.30;1.00;;;;;;4996341;28;20060;-84
2023/05/19 09:53:48;;;;;;;7.70;2.35;;;23.80;1.00;;;;;;4996323;28;20026;-84
2023/05/19 09:56:14;;;;;;;6.45;2.65;;;23.80;99.90;;;;;;4996327;28;20391;-83
2023/05/19 09:58:41;;;;;;;5.60;2.30;;;24.10;1.00;;;;;;4996525;28;20041;-85
2023/05/19 10:01:08;;;;;;;6.78;2.10;;;24.00;1.00;;;;;;4996207;28;20456;-85
2023/05/19 10:03:35;;;;;;;7.68;2.25;;;24.90;1.00;;;;;;4994816;28;20057;-85
2023/05/19 10:06:02;;;;;;;8.00;2.40;;;25.70;1.00;;;;;;4995401;28;20027;-84
2023/05/19 10:08:29;;;;;;;5.82;2.08;;;25.60;1.00;;;;;;4995789;28;20540;-85
2023/05/19 10:10:55;;;;;;;4.78;2.28;;;24.70;1.00;;;;;;4995766;28;20165;-85
2023/05/19 10:13:22;;;;;;;5.82;2.25;;;24.60;1.00;;;;;;4995568;28;20038;-85
2023/05/19 10:15:49;;;;;;;5.70;2.45;;;24.20;1.00;;;;;;4995525;28;20160;-84
2023/05/19 10:18:17;;;;;;;5.68;2.33;;;22.50;1.00;;;;;;4996060;28;20044;-84
2023/05/19 10:20:43;;;;;;;9.02;2.70;;;22.30;1.00;;;;;;4995586;28;20033;-83
2023/05/19 10:23:09;;;;;;;7.85;2.40;;;;;;;;;;4995203;28;20392;-85
2023/05/19 10:25:35;;;;;;;6.78;3.08;;;;;;;;;;4995372;28;20030;-85
2023/05/19 10:28:05;;;;;;;7.07;2.35;;;;;;;;;;4995889;28;20084;-83
2023/05/19 10:30:34;;;;;;;5.95;2.33;;;;;;;;;;4995583;28;20030;-83
2023/05/19 10:33:03;;;;;;;7.15;2.90;;;;;;;;;;4995142;28;20388;-85
2023/05/19 10:35:48;;;;;;;8.30;2.45;;;;;;;;;;4995786;28;20030;-86
2023/05/19 10:38:32;;;;;;;7.38;2.45;;;24.60;12.40;;;;;;4995930;28;20451;-85
2023/05/19 10:41:09;;;;;;;7.72;2.55;;;24.30;12.90;;;;;;4995380;28;20026;-86
2023/05/19 10:44:08;;;;;;;9.30;2.70;;;23.30;2.20;;;;;;4995460;28;20027;-86
2023/05/19 10:46:35;;;;;;;9.73;2.75;;;23.30;1.00;;;;;;4994990;28;20037;-86
2023/05/19 10:49:00;;;;;;;8.98;3.17;;;23.60;1.00;;;;;;4995671;28;20048;-85
2023/05/19 10:51:35;;;;;;;6.32;2.70;;;23.10;13.20;;;;;;4995145;28;20042;-85
2023/05/19 10:54:01;;;;;;;8.00;2.33;;;22.80;20.00;;;;;;4995471;28;20022;-85
2023/05/19 10:56:32;;;;;;;6.20;2.35;;;22.60;24.50;;;;;;4995333;28;20032;-84
2023/05/19 10:58:58;;;;;;;3.42;2.10;;;22.50;11.40;;;;;;4995516;28;20392;-84
2023/05/19 11:01:32;;;;;;;6.63;2.50;;;;;;;;;;4994776;28;20030;-86
2023/05/19 11:04:07;;;;;;;7.25;2.33;;;;;;;;;;4995154;28;20029;-85
2023/05/19 11:06:35;;;;;;;5.80;2.25;;;;;;;;;;4995544;28;20061;-86
2023/05/19 11:09:12;;;;;;;7.15;2.50;;;;;;;;;;4994840;28;20064;-85
2023/05/19 11:11:47;;;;;;;5.25;2.10;;;21.40;1.00;;;;;;4995394;28;20026;-84
2023/05/19 11:14:16;;;;;;;3.47;2.13;;;21.60;1.00;;;;;;4995147;28;20475;-85
2023/05/19 11:16:45;;;;;;;3.78;1.80;;;21.70;1.00;;;;;;4994615;28;20030;-86
2023/05/19 11:19:31;;;;;;;6.22;1.98;;;21.70;1.00;;;;;;4995113;28;20038;-85
2023/05/19 11:22:08;;;;;;;3.25;1.95;;;22.20;1.00;;;;;;4994781;28;20022;-86
2023/05/19 11:24:39;;;;;;;5.22;1.85;;;22.50;1.00;;;;;;4994417;28;20403;-85
2023/05/19 11:27:30;;;;;;;5.30;2.47;;;22.40;1.00;;;;;;4995000;28;20442;-86
2023/05/19 11:32:47;;;;;;;5.90;2.20;;;21.50;1.00;;;;;;5061891;22;20466;-69
2023/05/19 11:35:13;;;;;;;5.80;2.13;;;20.80;1.00;;;;;;5050590;28;20025;-69
2023/05/19 11:37:41;;;;;;;6.60;2.08;;;20.20;1.00;;;;;;5050465;28;20022;-69
2023/05/19 11:40:07;;;;;;;4.68;2.10;;;20.20;1.00;;;;;;5050641;28;20508;-69
2023/05/19 11:42:34;;;;;;;4.45;2.42;;;20.30;1.00;;;;;;5050273;28;20029;-69
2023/05/19 11:45:00;;;;;;;5.30;2.22;;;20.90;1.00;;;;;;5050419;28;20474;-69
2023/05/19 11:47:26;;;;;;;8.38;2.47;;;20.70;1.00;;;;;;5050143;28;20055;-69
2023/05/19 11:49:53;;;;;;;4.75;2.20;;;20.60;1.00;;;;;;5050035;28;20508;-69
2023/05/19 11:52:21;;;;;;;6.72;2.03;;;20.70;1.00;;;;;;5050301;28;20037;-69
2023/05/19 11:54:47;;;;;;;6.38;2.55;;;21.10;1.00;;;;;;5050356;28;20466;-70
2023/05/19 11:57:13;;;;;;;4.50;2.90;;;21.50;1.70;;;;;;5050098;28;20026;-69
2023/05/19 11:59:42;;;;;;;6.32;2.90;;;21.50;1.00;;;;;;5050129;28;20047;-69
2023/05/19 12:02:17;;;;;;;5.75;2.20;;;21.00;1.80;;;;;;5049838;28;20026;-69
2023/05/19 12:04:43;;;;;;;5.03;2.00;;;20.90;20.40;;;;;;5049883;28;20021;-69
2023/05/19 12:07:13;;;;;;;4.75;1.92;;;20.90;1.00;;;;;;5050137;28;20340;-69
2023/05/19 12:09:39;;;;;;;7.15;2.33;;;21.40;42.80;;;;;;5049961;28;20033;-69
2023/05/19 12:12:04;;;;;;;6.13;2.22;;;21.70;15.10;;;;;;5049748;28;20025;-69
2023/05/19 12:14:30;;;;;;;4.45;1.90;;;21.40;1.00;;;;;;5049844;28;20033;-69
2023/05/19 12:16:56;;;;;;;8.50;2.35;;;21.10;1.00;;;;;;5050069;28;20029;-69
2023/05/19 12:19:24;;;;;;;5.90;2.33;;;20.80;1.00;;;;;;5049770;28;20029;-69
2023/05/19 12:21:50;;;;;;;8.43;2.03;;;20.70;1.00;;;;;;5049990;28;20399;-69
2023/05/19 12:24:16;;;;;;;8.52;2.35;;;21.30;1.00;;;;;;5049629;28;20500;-69
2023/05/19 12:26:42;;;;;;;6.88;2.10;;;21.50;1.00;;;;;;5049607;28;20108;-69
2023/05/19 12:29:07;;;;;;;8.27;2.22;;;21.50;1.00;;;;;;5049714;28;20386;-69
2023/05/19 12:31:34;;;;;;;7.40;2.08;;;21.50;1.00;;;;;;5049337;28;20085;-69
2023/05/19 12:34:00;;;;;;;6.18;2.08;;;22.10;1.00;;;;;;5049502;28;20017;-68
2023/05/19 12:36:27;;;;;;;4.90;2.20;;;22.10;1.00;;;;;;5049673;28;20048;-69
2023/05/19 12:38:54;;;;;;;6.05;2.35;;;21.90;1.00;;;;;;5049600;28;20017;-69
2023/05/19 12:41:19;;;;;;;5.07;2.10;;;21.60;1.00;;;;;;5049446;28;20033;-69
2023/05/19 12:43:45;;;;;;;5.80;2.20;;;21.80;1.00;;;;;;5037921;28;20212;-69
2023/05/19 12:46:11;;;;;;;5.63;2.20;;;21.80;1.00;;;;;;5035962;28;20087;-69
2023/05/19 12:48:42;;;;;;;5.70;2.00;;;21.30;1.00;;;;;;5035948;28;20026;-69
2023/05/19 12:51:08;;;;;;;5.13;2.20;;;21.10;1.00;;;;;;5035799;28;20053;-69
2023/05/19 12:53:35;;;;;;;7.18;2.22;;;21.70;1.00;;;;;;5035756;28;20065;-69
2023/05/19 12:56:08;;;;;;;5.18;2.20;;;21.90;1.00;;;;;;5036069;28;20056;-69
2023/05/19 12:58:36;;;;;;;4.78;2.13;;;21.90;7.70;;;;;;5035736;28;20105;-69
2023/05/19 13:01:01;;;;;;;6.05;2.42;;;22.10;1.00;;;;;;5035695;28;20112;-69
2023/05/19 13:03:27;;;;;;;5.05;2.63;;;22.10;1.00;;;;;;5035819;28;20130;-69
2023/05/19 13:05:52;;;;;;;4.68;2.38;;;22.00;8.20;;;;;;5035736;28;20142;-69
2023/05/19 13:08:20;;;;;;;7.82;2.22;;;21.80;1.00;;;;;;5035682;28;20025;-69
2023/05/19 13:10:46;;;;;;;3.65;2.15;;;22.10;22.20;;;;;;5035596;28;20040;-69
2023/05/19 13:13:12;;;;;;;7.15;2.05;;;21.70;1.00;;;;;;5035353;28;20446;-69
2023/05/19 13:15:43;;;;;;;5.07;2.03;;;21.00;1.00;;;;;;5034335;28;20046;-69
2023/05/19 13:18:11;;;;;;;8.02;2.13;;;20.30;1.00;;;;;;5035426;28;20018;-69
2023/05/19 13:20:37;;;;;;;5.22;2.00;;;20.10;1.00;;;;;;5035403;28;20104;-69
2023/05/19 13:23:04;;;;;;;9.65;2.35;;;20.40;1.00;;;;;;5033894;28;20528;-69
2023/05/19 13:25:31;;;;;;;4.10;1.98;;;20.80;1.00;;;;;;5035489;28;20045;-69
2023/05/19 13:28:00;;;;;;;7.57;2.03;;;21.10;1.00;;;;;;5035375;28;20436;-69
2023/05/19 13:30:26;;;;;;;4.97;2.15;;;21.40;1.00;;;;;;5035169;28;20056;-69
2023/05/19 13:32:51;;;;;;;3.38;1.92;;;21.50;1.00;;;;;;5035016;28;20042;-69
2023/05/19 13:35:17;;;;;;;3.00;1.90;;;21.00;1.00;;;;;;5035074;28;20367;-69
2023/05/19 13:37:42;;;;;;;5.47;2.60;;;21.30;1.00;;;;;;5034940;28;20025;-69
2023/05/19 13:40:09;;;;;;;7.10;2.63;;;20.90;1.00;;;;;;5035216;28;20030;-69
2023/05/19 13:42:35;;;;;;;5.40;2.40;;;20.70;2.20;;;;;;5034844;28;20053;-69
2023/05/19 13:45:01;;;;;;;4.00;2.10;;;20.90;6.70;;;;;;5034984;28;20111;-70
2023/05/19 13:47:27;;;;;;;7.60;2.50;;;21.40;1.00;;;;;;5035037;28;20029;-69
2023/05/19 13:49:53;;;;;;;5.22;2.20;;;21.40;6.70;;;;;;5035029;28;20033;-69
2023/05/19 13:52:20;;;;;;;6.53;2.40;;;21.50;12.50;;;;;;5034765;28;20052;-69
2023/05/19 13:54:46;;;;;;;5.70;2.00;;;21.60;17.50;;;;;;5033730;28;20025;-69
2023/05/19 13:57:12;;;;;;;8.02;2.42;;;21.40;11.90;;;;;;5034756;28;20490;-69
2023/05/19 13:59:38;;;;;;;5.72;1.95;;;21.50;12.80;;;;;;5034639;28;20026;-69
2023/05/19 14:02:05;;;;;;;4.68;2.25;;;21.60;61.10;;;;;;5034714;28;20382;-69
2023/05/19 14:04:30;;;;;;;12.70;2.35;;;21.30;99.90;;;;;;5034685;28;20040;-69
2023/05/19 14:06:57;;;;;;;4.40;2.17;;;20.90;99.90;;;;;;5034392;28;20029;-69
2023/05/19 14:09:22;;;;;;;3.28;2.00;;;20.80;90.50;;;;;;5034249;28;20021;-69
2023/05/19 14:11:48;;;;;;;3.85;2.28;;;20.80;38.50;;;;;;5034449;28;20033;-69
2023/05/19 14:14:14;;;;;;;4.35;2.42;;;20.90;99.90;;;;;;5034312;28;20483;-69
2023/05/19 14:16:40;;;;;;;5.55;2.20;;;21.00;99.90;;;;;;5034474;28;20026;-69
2023/05/19 14:19:06;;;;;;;4.05;2.20;;;21.20;99.30;;;;;;5034216;28;20113;-69
2023/05/19 14:21:32;;;;;;;4.90;2.38;;;21.20;45.50;;;;;;5034403;28;20068;-69
2023/05/19 14:23:57;;;;;;;5.30;2.00;;;21.40;99.90;;;;;;5034349;28;20033;-69
2023/05/19 14:26:23;;;;;;;4.40;2.13;;;21.50;28.10;;;;;;5033954;28;20036;-69
2023/05/19 14:28:48;;;;;;;8.38;2.65;;;21.70;99.90;;;;;;5034206;28;20029;-69
2023/05/19 14:31:14;;;;;;;5.80;2.40;;;21.20;57.70;;;;;;5033775;28;20076;-69
2023/05/19 14:33:40;;;;;;;5.97;2.30;;;21.30;42.20;;;;;;5034169;28;20026;-69
2023/05/19 14:36:06;;;;;;;6.43;2.40;;;21.40;57.10;;;;;;5034022;28;20096;-69
2023/05/19 14:38:32;;;;;;;7.03;2.70;;;21.50;20.90;;;;;;5033542;28;20528;-69
2023/05/19 14:40:57;;;;;;;4.15;2.30;;;21.50;16.60;;;;;;5034089;28;20025;-69
2023/05/19 14:43:23;;;;;;;6.70;2.30;;;21.50;54.10;;;;;;5033891;28;20029;-69
2023/05/19 14:45:49;;;;;;;5.18;2.20;;;22.00;1.00;;;;;;5033778;28;20032;-69
2023/05/19 14:48:15;;;;;;;4.00;2.10;;;21.50;12.40;;;;;;5033793;28;20032;-69
2023/05/19 14:50:40;;;;;;;3.03;2.00;;;21.00;51.20;;;;;;5033741;28;20063;-69
2023/05/19 14:53:06;;;;;;;5.35;2.60;;;20.50;79.10;;;;;;5033756;28;20034;-69
2023/05/19 14:55:31;;;;;;;5.43;2.28;;;20.40;29.90;;;;;;5033568;28;20367;-69
2023/05/19 14:57:57;;;;;;;2.53;1.92;;;20.70;51.00;;;;;;5033490;28;20032;-69
2023/05/19 15:00:24;;;;;;;5.55;2.20;;;21.00;31.70;;;;;;5033671;28;20490;-69
2023/05/19 15:02:51;;;;;;;5.82;2.72;;;21.30;60.60;;;;;;5033585;28;20394;-69
2023/05/19 15:05:16;;;;;;;4.13;2.40;;;21.60;74.90;;;;;;5033259;28;20022;-69
2023/05/19 15:07:42;;;;;;;5.15;2.30;;;21.30;53.10;;;;;;5033236;28;20025;-69
2023/05/19 15:10:08;;;;;;;6.70;2.08;;;21.10;76.30;;;;;;5033444;28;20100;-69
2023/05/19 15:12:33;;;;;;;5.10;2.20;;;20.80;50.90;;;;;;5033329;28;20368;-69
2023/05/19 15:14:59;;;;;;;3.58;2.22;;;20.60;15.40;;;;;;5033542;28;20048;-69
2023/05/19 15:17:24;;;;;;;3.42;2.22;;;20.80;73.40;;;;;;5033232;28;20036;-68
2023/05/19 15:19:50;;;;;;;11.43;2.40;;;20.70;23.60;;;;;;5033434;28;20071;-69
2023/05/19 15:22:15;;;;;;;3.13;2.25;;;20.90;56.00;;;;;;5033267;28;20026;-69
2023/05/19 15:24:41;;;;;;;4.95;2.28;;;20.80;94.80;;;;;;5032939;28;20044;-69
2023/05/19 15:27:07;;;;;;;3.55;2.20;;;20.70;95.00;;;;;;5033255;28;20033;-69
2023/05/19 15:29:33;;;;;;;4.05;2.00;;;20.60;80.90;;;;;;5033400;28;20075;-69
2023/05/19 15:31:59;;;;;;;5.07;2.17;;;20.00;81.60;;;;;;5032681;28;20042;-69
2023/05/19 15:34:24;;;;;;;5.80;2.28;;;19.90;78.40;;;;;;5033289;28;20021;-69
2023/05/19 15:36:50;;;;;;;4.07;2.30;;;20.00;88.00;;;;;;5033256;28;20083;-69
2023/05/19 15:39:16;;;;;;;4.95;2.28;;;20.10;97.80;;;;;;5033042;28;20025;-69
2023/05/19 15:41:41;;;;;;;5.55;2.58;;;20.50;99.90;;;;;;5033142;28;20040;-69
2023/05/19 15:44:07;;;;;;;4.22;2.05;;;20.70;97.80;;;;;;5033072;28;20426;-69
2023/05/19 15:46:33;;;;;;;5.20;2.20;;;21.00;99.90;;;;;;5033246;28;20030;-69
2023/05/19 15:48:58;;;;;;;6.60;2.42;;;21.20;99.90;;;;;;5032772;28;20025;-69
2023/05/19 15:51:24;;;;;;;4.50;2.15;;;20.90;93.50;;;;;;5032974;28;20030;-69
2023/05/19 15:53:50;;;;;;;4.43;2.30;;;20.70;99.90;;;;;;5033223;28;20025;-69
2023/05/19 15:56:16;;;;;;;4.63;2.13;;;20.40;98.90;;;;;;5032774;28;20113;-69
2023/05/19 15:58:42;;;;;;;4.03;2.53;;;20.10;64.70;;;;;;5033053;28;20071;-69
2023/05/19 16:01:08;;;;;;;6.18;2.40;;;19.60;72.50;;;;;;5033067;28;20029;-69
2023/05/19 16:03:33;;;;;;;5.85;2.45;;;19.50;99.90;;;;;;5032952;28;20029;-69
2023/05/19 16:05:59;;;;;;;5.43;2.22;;;19.70;68.30;;;;;;5032899;28;20568;-69
2023/05/19 16:08:25;;;;;;;4.90;2.40;;;19.80;57.10;;;;;;5032899;28;20029;-69
2023/05/19 16:10:51;;;;;;;6.70;2.60;;;19.90;50.00;;;;;;5032896;28;20030;-69
2023/05/19 16:13:16;;;;;;;5.03;2.13;;;20.20;11.50;;;;;;5032885;28;20475;-69
2023/05/19 16:15:42;;;;;;;5.47;2.20;;;20.30;1.00;;;;;;5032998;28;20037;-69
2023/05/19 16:18:07;;;;;;;4.90;2.03;;;20.10;1.00;;;;;;5034467;28;20482;-69
2023/05/19 16:20:33;;;;;;;5.45;2.20;;;19.90;10.60;;;;;;5036809;28;20021;-69
2023/05/19 16:22:58;;;;;;;7.88;2.00;;;19.80;1.00;;;;;;5036542;28;20026;-69
2023/05/19 16:25:24;;;;;;;5.15;2.38;;;19.50;1.00;;;;;;5036612;28;20029;-69
2023/05/19 16:27:51;;;;;;;5.93;1.88;;;19.40;1.00;;;;;;5036716;28;20481;-69
2023/05/19 16:30:17;;;;;;;5.63;1.90;;;19.20;1.00;;;;;;5036318;28;20113;-69
2023/05/19 16:32:42;;;;;;;6.80;2.03;;;19.10;1.00;;;;;;5036033;28;20128;-69
2023/05/19 16:35:08;;;;;;;5.53;1.83;;;19.00;1.00;;;;;;5036262;28;20124;-69
2023/05/19 16:37:34;;;;;;;4.68;2.03;;;19.00;1.00;;;;;;5036232;28;20100;-69
2023/05/19 16:39:59;;;;;;;4.20;2.15;;;19.00;1.00;;;;;;5036277;28;20026;-69
2023/05/19 16:42:25;;;;;;;5.38;1.98;;;19.00;1.00;;;;;;5036332;28;20037;-69
2023/05/19 16:44:51;;;;;;;4.28;2.30;;;19.10;1.00;;;;;;5036343;28;20079;-69
2023/05/19 16:47:16;;;;;;;4.13;1.92;;;19.10;1.00;;;;;;5035628;28;20038;-69
2023/05/19 16:49:42;;;;;;;4.32;2.28;;;19.10;1.00;;;;;;5035947;28;20029;-69
2023/05/19 16:52:08;;;;;;;6.85;1.75;;;19.10;1.00;;;;;;5035866;28;20022;-69
2023/05/19 16:54:34;;;;;;;5.13;2.25;;;19.20;1.00;;;;;;5035916;28;20051;-69
2023/05/19 16:57:00;;;;;;;5.93;2.25;;;19.20;1.00;;;;;;5036140;28;20109;-69
2023/05/19 16:59:26;;;;;;;4.78;2.25;;;19.30;1.00;;;;;;5036085;28;20025;-69
2023/05/19 17:01:52;;;;;;;5.00;2.30;;;19.10;1.00;;;;;;5035883;28;20033;-69
2023/05/19 17:04:17;;;;;;;3.30;1.98;;;19.10;1.00;;;;;;5035916;28;20021;-69
2023/05/19 17:06:44;;;;;;;3.10;2.10;;;19.10;1.00;;;;;;5035644;28;20087;-69
2023/05/19 17:09:10;;;;;;;2.97;2.30;;;19.00;1.00;;;;;;5035601;28;20038;-69
2023/05/19 17:11:36;;;;;;;3.40;1.85;;;19.00;1.00;;;;;;5035561;28;20036;-69
2023/05/19 17:14:06;;;;;;;4.10;2.00;;;18.90;1.00;;;;;;5035624;28;20079;-69
2023/05/19 17:16:32;;;;;;;4.03;1.90;;;19.00;1.00;;;;;;5035506;28;20031;-69
2023/05/19 17:18:58;;;;;;;4.93;2.47;;;18.90;1.00;;;;;;5035581;28;20029;-69
2023/05/19 17:21:23;;;;;;;4.60;2.20;;;18.90;1.00;;;;;;5035566;28;20484;-69
2023/05/19 17:23:49;;;;;;;3.40;2.00;;;18.90;1.00;;;;;;5035455;28;20038;-69
2023/05/19 17:26:14;;;;;;;2.65;1.85;;;18.80;1.00;;;;;;5035494;28;20029;-69
2023/05/19 17:28:40;;;;;;;3.65;1.90;;;18.80;1.00;;;;;;5035192;28;20119;-69
2023/05/19 17:31:11;;;;;;;4.53;2.13;;;18.80;1.00;;;;;;5034899;28;20018;-69
2023/05/19 17:33:36;;;;;;;6.57;2.13;;;18.70;1.00;;;;;;5034247;28;20029;-69
2023/05/19 17:36:09;;;;;;;2.30;1.67;;;18.70;1.00;;;;;;5035362;28;20386;-70
2023/05/19 17:38:39;;;;;;;2.60;1.67;;;18.60;1.00;;;;;;5035319;28;20382;-70
2023/05/19 17:41:08;;;;;;;3.85;1.83;;;18.60;1.00;;;;;;5035136;28;20445;-67
2023/05/19 17:43:35;;;;;;;5.95;2.30;;;18.50;1.00;;;;;;5034990;28;20117;-66
2023/05/19 17:46:01;;;;;;;5.97;1.98;;;18.30;1.00;;;;;;5034861;28;20542;-67
2023/05/19 17:48:27;;;;;;;5.70;1.77;;;18.20;1.00;;;;;;5035102;28;20100;-67
2023/05/19 17:50:52;;;;;;;4.32;1.88;;;18.20;1.00;;;;;;5034908;28;20079;-66
2023/05/19 17:53:18;;;;;;;2.33;1.73;;;18.10;1.00;;;;;;5034773;28;20112;-66
2023/05/19 17:55:50;;;;;;;3.97;2.05;;;18.10;1.00;;;;;;5034711;28;20497;-66
2023/05/19 17:58:16;;;;;;;4.38;2.03;;;18.10;1.00;;;;;;5033470;28;20106;-67
2023/05/19 18:00:42;;;;;;;4.07;1.80;;;18.10;1.00;;;;;;5034485;28;20021;-66
2023/05/19 18:03:07;;;;;;;2.60;1.80;;;18.00;1.00;;;;;;5033431;28;20430;-66
2023/05/19 18:05:33;;;;;;;4.03;2.00;;;18.00;1.00;;;;;;5034360;28;20478;-66
2023/05/19 18:08:03;;;;;;;2.20;1.85;;;18.00;1.00;;;;;;5033373;28;20025;-66
2023/05/19 18:10:34;;;;;;;3.80;2.30;;;17.90;1.00;;;;;;5034391;28;20021;-66
2023/05/19 18:13:00;;;;;;;4.10;1.95;;;17.90;1.00;;;;;;5034676;28;20026;-66
2023/05/19 18:15:25;;;;;;;7.20;1.88;;;17.80;72.70;;;;;;5034422;28;20436;-66
2023/05/19 18:17:51;;;;;;;2.30;1.90;;;17.90;99.90;;;;;;5034355;28;20423;-66
2023/05/19 18:20:17;;;;;;;2.90;1.65;;;17.90;99.90;;;;;;5034285;28;20026;-66
2023/05/19 18:22:42;;;;;;;6.78;2.08;;;17.80;99.90;;;;;;5034433;28;20030;-66
2023/05/19 18:25:08;;;;;;;3.50;2.08;;;17.80;99.90;;;;;;5034209;28;20033;-66
2023/05/19 18:27:34;;;;;;;2.75;2.05;;;17.70;99.90;;;;;;5034182;28;20022;-66
2023/05/19 18:29:59;;;;;;;3.20;1.88;;;17.60;99.90;;;;;;5034009;28;20525;-66
2023/05/19 18:32:25;;;;;;;5.03;1.75;;;17.60;99.90;;;;;;5033843;28;20069;-67
2023/05/19 18:34:50;;;;;;;2.45;1.83;;;17.50;99.90;;;;;;5034007;28;20029;-66
2023/05/19 18:37:16;;;;;;;3.67;1.80;;;17.50;98.30;;;;;;5034128;28;20030;-66
2023/05/19 18:39:42;;;;;;;3.05;1.83;;;17.40;99.90;;;;;;5034153;28;20097;-66
2023/05/19 18:42:07;;;;;;;4.53;1.98;;;17.30;99.90;;;;;;5033643;28;20466;-66
2023/05/19 18:44:33;;;;;;;4.80;2.17;;;17.20;99.90;;;;;;5034070;28;20048;-66
2023/05/19 18:46:58;;;;;;;4.85;2.03;;;17.10;99.90;;;;;;5033917;28;20034;-66
2023/05/19 18:49:24;;;;;;;3.65;1.65;;;17.00;99.90;;;;;;5033962;28;20029;-66
2023/05/19 18:51:49;;;;;;;8.93;2.45;;;16.90;99.90;;;;;;5033910;28;20382;-66
2023/05/19 18:54:19;;;;;;;2.50;1.70;;;;;;;;;;5033672;28;20410;-66
2023/05/19 18:56:46;;;;;;;2.75;1.70;;;;;;;;;;5033651;28;20076;-66
2023/05/19 18:59:11;;;;;;;3.47;2.17;;;16.40;1.00;;;;;;5033884;28;20075;-66
2023/05/19 19:01:37;;;;;;;2.65;1.80;;;16.60;1.00;;;;;;5033612;28;20033;-66
2023/05/19 19:04:02;;;;;;;4.35;2.00;;;16.50;99.90;;;;;;5033519;28;20034;-67
2023/05/19 19:06:28;;;;;;;3.17;2.33;;;16.10;3.20;;;;;;5033578;28;20033;-67
2023/05/19 19:08:53;;;;;;;2.00;1.80;;;16.20;1.00;;;;;;5033598;28;20033;-67
2023/05/19 19:11:19;;;;;;;3.90;2.10;;;16.10;99.90;;;;;;5033367;28;20402;-66
2023/05/19 19:13:45;;;;;;;6.10;2.50;;;15.90;99.90;;;;;;5033658;28;20379;-66
2023/05/19 19:16:11;;;;;;;5.82;2.03;;;16.00;36.40;;;;;;5033369;28;20383;-66
2023/05/19 19:18:36;;;;;;;5.95;2.22;;;15.80;57.80;;;;;;5033576;28;20071;-66
2023/05/19 19:21:04;;;;;;;6.93;2.75;;;15.70;99.90;;;;;;5033270;28;20029;-66
2023/05/19 19:23:30;;;;;;;3.03;2.25;;;15.70;99.90;;;;;;5032381;28;20435;-67
2023/05/19 19:25:58;;;;;;;2.53;2.20;;;;;;;;;;5033538;28;20498;-67
2023/05/19 19:28:24;;;;;;;3.72;2.97;;;;;;;;;;5033527;28;20044;-67
2023/05/19 19:30:50;;;;;;;7.05;2.25;;;;;;;;;;5033177;28;20033;-66
2023/05/19 19:33:16;;;;;;;5.43;2.25;;;;;;;;;;5033048;28;20120;-66
2023/05/19 19:35:45;;;;;;;3.92;2.33;;;;;;;;;;5033221;28;20029;-66
2023/05/19 19:38:10;;;;;;;3.55;2.30;;;15.10;99.90;;;;;;5033408;28;20179;-66
2023/05/19 19:40:36;;;;;;;4.82;2.40;;;15.00;1.00;;;;;;5033356;28;20026;-66
2023/05/19 19:43:01;;;;;;;3.00;2.40;;;15.00;51.60;;;;;;5033275;28;20042;-66
2023/05/19 19:45:27;;;;;;;5.18;2.50;;;14.90;4.40;;;;;;5033126;28;20021;-66
2023/05/19 19:47:52;;;;;;;3.28;2.28;;;14.90;1.00;;;;;;5033164;28;20104;-66
2023/05/19 19:50:18;;;;;;;4.50;2.35;;;14.90;80.40;;;;;;5033244;28;20425;-66
2023/05/19 19:52:43;;;;;;;4.13;2.40;;;14.80;99.90;;;;;;5033644;28;20046;-66
2023/05/19 19:55:09;;;;;;;5.20;2.10;;;14.70;99.90;;;;;;5036940;28;20105;-67
2023/05/19 19:57:35;;;;;;;5.38;3.13;;;14.60;99.90;;;;;;5036847;28;20029;-67
2023/05/19 20:00:07;;;;;;;5.78;2.92;;;14.60;1.00;;;;;;5037013;28;20029;-66
2023/05/19 20:02:34;;;;;;;4.45;2.88;;;14.70;1.00;;;;;;5037103;28;20037;-67
2023/05/19 20:05:00;;;;;;;5.80;3.03;;;14.70;99.90;;;;;;5035765;28;20034;-66
2023/05/19 20:07:26;;;;;;;7.45;3.13;;;14.70;99.90;;;;;;5036793;28;20036;-66
2023/05/19 20:09:52;;;;;;;5.13;2.85;;;14.80;99.90;;;;;;5036703;28;20398;-66
2023/05/19 20:12:17;;;;;;;4.60;2.85;;;14.80;91.20;;;;;;5036602;28;20431;-66
2023/05/19 20:14:43;;;;;;;5.28;3.05;;;14.90;99.90;;;;;;5036649;28;20522;-66
2023/05/19 20:17:08;;;;;;;4.78;3.35;;;14.90;53.10;;;;;;5036628;28;20032;-66
2023/05/19 20:19:34;;;;;;;8.02;3.28;;;14.90;99.90;;;;;;5036634;28;20052;-66
2023/05/19 20:21:59;;;;;;;6.38;3.28;;;14.90;99.90;;;;;;5036580;28;20029;-66
2023/05/19 20:24:25;;;;;;;4.78;3.50;;;15.00;99.90;;;;;;5036627;28;20479;-66
2023/05/19 20:26:50;;;;;;;7.20;3.47;;;15.00;99.90;;;;;;5036414;28;20033;-66
2023/05/19 20:29:16;;;;;;;7.60;3.00;;;15.10;23.00;;;;;;5036587;28;20491;-66
2023/05/19 20:31:41;;;;;;;5.93;3.03;;;15.10;26.70;;;;;;5036232;28;20037;-66
2023/05/19 20:34:07;;;;;;;4.18;2.92;;;15.10;99.90;;;;;;5036369;28;20056;-66
2023/05/19 20:36:32;;;;;;;5.97;2.75;;;15.10;99.90;;;;;;5036345;28;20021;-66